sensor_id;sensor_type;location;lat;lon;timestamp;pressure;altitude;pressure_sealevel;temperature;humidity
56807;BME280;42687;42.524;12.052;2022-10-22T00:00:47;97305.97;;;15.24;96.02
56807;BME280;42687;42.524;12.052;2022-10-22T00:03:12;97313.09;;;15.23;96.13
56807;BME280;42687;42.524;12.052;2022-10-22T00:05:38;97320.28;;;15.21;96.19
56807;BME280;42687;42.524;12.052;2022-10-22T00:08:04;97308.97;;;15.19;96.47
56807;BME280;42687;42.524;12.052;2022-10-22T00:10:30;97311.50;;;15.21;96.42
56807;BME280;42687;42.524;12.052;2022-10-22T00:12:56;97313.09;;;15.23;96.50
56807;BME280;42687;42.524;12.052;2022-10-22T00:15:21;97303.13;;;15.27;96.52
56807;BME280;42687;42.524;12.052;2022-10-22T00:17:47;97310.88;;;15.30;96.78
56807;BME280;42687;42.524;12.052;2022-10-22T00:20:13;97303.56;;;15.33;96.87
56807;BME280;42687;42.524;12.052;2022-10-22T00:22:39;97308.41;;;15.40;97.06
56807;BME280;42687;42.524;12.052;2022-10-22T00:25:04;97310.78;;;15.44;97.00
56807;BME280;42687;42.524;12.052;2022-10-22T00:27:30;97305.13;;;15.49;97.47
56807;BME280;42687;42.524;12.052;2022-10-22T00:29:56;97301.00;;;15.58;97.55
56807;BME280;42687;42.524;12.052;2022-10-22T00:32:21;97297.06;;;15.63;97.72
56807;BME280;42687;42.524;12.052;2022-10-22T00:34:47;97301.19;;;15.67;97.69
56807;BME280;42687;42.524;12.052;2022-10-22T00:37:12;97307.66;;;15.76;97.79
56807;BME280;42687;42.524;12.052;2022-10-22T00:39:38;97311.81;;;15.80;97.97
56807;BME280;42687;42.524;12.052;2022-10-22T00:42:03;97317.78;;;15.84;97.90
56807;BME280;42687;42.524;12.052;2022-10-22T00:47:13;97313.91;;;15.75;98.14
56807;BME280;42687;42.524;12.052;2022-10-22T00:49:39;97314.78;;;15.76;97.80
56807;BME280;42687;42.524;12.052;2022-10-22T00:52:05;97317.75;;;15.71;97.88
56807;BME280;42687;42.524;12.052;2022-10-22T00:54:31;97303.75;;;15.69;98.04
56807;BME280;42687;42.524;12.052;2022-10-22T00:56:57;97310.25;;;15.65;97.98
56807;BME280;42687;42.524;12.052;2022-10-22T00:59:22;97309.72;;;15.60;97.99
56807;BME280;42687;42.524;12.052;2022-10-22T01:01:48;97311.72;;;15.56;98.19
56807;BME280;42687;42.524;12.052;2022-10-22T01:04:14;97307.38;;;15.55;97.96
56807;BME280;42687;42.524;12.052;2022-10-22T01:06:40;97308.53;;;15.51;98.03
56807;BME280;42687;42.524;12.052;2022-10-22T01:14:24;97287.75;;;15.45;98.08
56807;BME280;42687;42.524;12.052;2022-10-22T01:19:56;97277.38;;;15.55;97.89
56807;BME280;42687;42.524;12.052;2022-10-22T01:22:31;97283.41;;;15.57;97.94
56807;BME280;42687;42.524;12.052;2022-10-22T01:25:08;97282.44;;;15.58;97.60
56807;BME280;42687;42.524;12.052;2022-10-22T01:30:31;97277.25;;;15.56;98.13
56807;BME280;42687;42.524;12.052;2022-10-22T01:33:00;97238.59;;;15.28;97.91
56807;BME280;42687;42.524;12.052;2022-10-22T01:35:29;97280.63;;;15.58;97.99
56807;BME280;42687;42.524;12.052;2022-10-22T01:37:57;97290.09;;;15.62;98.03
56807;BME280;42687;42.524;12.052;2022-10-22T01:40:24;97290.81;;;15.64;98.20
56807;BME280;42687;42.524;12.052;2022-10-22T01:42:57;97289.13;;;15.63;98.44
56807;BME280;42687;42.524;12.052;2022-10-22T01:45:23;97298.13;;;15.61;98.38
56807;BME280;42687;42.524;12.052;2022-10-22T01:55:32;97285.31;;;15.55;98.43
56807;BME280;42687;42.524;12.052;2022-10-22T01:58:17;97294.97;;;15.56;97.98
56807;BME280;42687;42.524;12.052;2022-10-22T02:00:45;97292.34;;;15.56;98.12
56807;BME280;42687;42.524;12.052;2022-10-22T02:03:14;97277.50;;;15.53;98.11
56807;BME280;42687;42.524;12.052;2022-10-22T02:05:48;97273.31;;;15.49;98.23
56807;BME280;42687;42.524;12.052;2022-10-22T02:08:34;97274.50;;;15.45;98.27
56807;BME280;42687;42.524;12.052;2022-10-22T02:11:00;97274.50;;;15.45;98.35
56807;BME280;42687;42.524;12.052;2022-10-22T02:13:27;97281.84;;;15.41;98.36
56807;BME280;42687;42.524;12.052;2022-10-22T02:15:54;97281.09;;;15.39;98.18
56807;BME280;42687;42.524;12.052;2022-10-22T02:18:21;97289.78;;;15.41;98.28
56807;BME280;42687;42.524;12.052;2022-10-22T02:20:48;97288.63;;;15.45;98.41
56807;BME280;42687;42.524;12.052;2022-10-22T02:23:14;97282.16;;;15.49;98.71
56807;BME280;42687;42.524;12.052;2022-10-22T02:25:40;97235.94;;;15.28;99.05
56807;BME280;42687;42.524;12.052;2022-10-22T02:30:32;97271.13;;;15.56;98.66
56807;BME280;42687;42.524;12.052;2022-10-22T02:35:42;97273.31;;;15.49;98.76
56807;BME280;42687;42.524;12.052;2022-10-22T02:38:07;97265.38;;;15.49;98.79
56807;BME280;42687;42.524;12.052;2022-10-22T02:40:34;97267.72;;;15.54;99.48
56807;BME280;42687;42.524;12.052;2022-10-22T02:43:00;97270.03;;;15.58;98.79
56807;BME280;42687;42.524;12.052;2022-10-22T02:45:28;97267.19;;;15.61;99.00
56807;BME280;42687;42.524;12.052;2022-10-22T02:47:53;97274.06;;;15.64;98.83
56807;BME280;42687;42.524;12.052;2022-10-22T02:50:19;97261.88;;;15.61;98.65
56807;BME280;42687;42.524;12.052;2022-10-22T02:52:44;97253.41;;;15.56;98.77
56807;BME280;42687;42.524;12.052;2022-10-22T02:55:10;97256.34;;;15.51;98.78
56807;BME280;42687;42.524;12.052;2022-10-22T02:57:35;97255.88;;;15.46;99.02
56807;BME280;42687;42.524;12.052;2022-10-22T03:00:01;97253.63;;;15.40;98.78
56807;BME280;42687;42.524;12.052;2022-10-22T03:02:27;97252.34;;;15.33;98.57
56807;BME280;42687;42.524;12.052;2022-10-22T03:04:52;97255.75;;;15.22;98.69
56807;BME280;42687;42.524;12.052;2022-10-22T03:07:18;97253.00;;;15.11;99.04
56807;BME280;42687;42.524;12.052;2022-10-22T03:09:44;97273.84;;;15.02;98.92
56807;BME280;42687;42.524;12.052;2022-10-22T03:12:09;97246.31;;;14.79;99.25
56807;BME280;42687;42.524;12.052;2022-10-22T03:14:35;97277.13;;;14.93;99.36
56807;BME280;42687;42.524;12.052;2022-10-22T03:17:00;97272.47;;;14.97;99.58
56807;BME280;42687;42.524;12.052;2022-10-22T03:19:26;97273.84;;;15.02;99.69
56807;BME280;42687;42.524;12.052;2022-10-22T03:21:52;97268.47;;;15.04;99.39
56807;BME280;42687;42.524;12.052;2022-10-22T03:24:21;97274.59;;;15.05;99.02
56807;BME280;42687;42.524;12.052;2022-10-22T03:26:48;97271.97;;;15.05;99.02
56807;BME280;42687;42.524;12.052;2022-10-22T03:29:14;97269.41;;;15.03;99.01
56807;BME280;42687;42.524;12.052;2022-10-22T03:31:40;97278.00;;;15.07;99.06
56807;BME280;42687;42.524;12.052;2022-10-22T03:34:06;97283.94;;;15.10;99.00
56807;BME280;42687;42.524;12.052;2022-10-22T03:36:32;97289.97;;;15.12;98.71
56807;BME280;42687;42.524;12.052;2022-10-22T03:39:00;97282.16;;;15.11;98.80
56807;BME280;42687;42.524;12.052;2022-10-22T03:41:27;97285.84;;;15.08;98.57
56807;BME280;42687;42.524;12.052;2022-10-22T03:43:53;97281.50;;;15.07;98.64
56807;BME280;42687;42.524;12.052;2022-10-22T03:46:19;97277.03;;;15.08;98.37
56807;BME280;42687;42.524;12.052;2022-10-22T03:48:45;97254.59;;;15.00;97.94
56807;BME280;42687;42.524;12.052;2022-10-22T03:51:11;97274.63;;;15.17;97.94
56807;BME280;42687;42.524;12.052;2022-10-22T03:53:36;97276.66;;;15.27;97.76
56807;BME280;42687;42.524;12.052;2022-10-22T03:56:02;97278.25;;;15.29;97.73
56807;BME280;42687;42.524;12.052;2022-10-22T03:58:27;97284.38;;;15.30;97.83
56807;BME280;42687;42.524;12.052;2022-10-22T04:00:53;97284.38;;;15.30;97.82
56807;BME280;42687;42.524;12.052;2022-10-22T04:03:18;97295.50;;;15.35;97.95
56807;BME280;42687;42.524;12.052;2022-10-22T04:05:44;97294.09;;;15.42;97.94
56807;BME280;42687;42.524;12.052;2022-10-22T04:08:09;97295.63;;;15.46;97.81
56807;BME280;42687;42.524;12.052;2022-10-22T04:10:35;97294.13;;;15.55;98.04
56807;BME280;42687;42.524;12.052;2022-10-22T04:13:00;97292.81;;;15.61;98.26
56807;BME280;42687;42.524;12.052;2022-10-22T04:15:26;97288.81;;;15.68;98.38
56807;BME280;42687;42.524;12.052;2022-10-22T04:17:53;97290.28;;;15.72;98.34
56807;BME280;42687;42.524;12.052;2022-10-22T04:20:19;97294.19;;;15.79;98.20
56807;BME280;42687;42.524;12.052;2022-10-22T04:22:44;97291.47;;;15.81;98.34
56807;BME280;42687;42.524;12.052;2022-10-22T04:25:09;97270.25;;;15.68;98.33
56807;BME280;42687;42.524;12.052;2022-10-22T04:27:35;97278.00;;;15.84;98.69
56807;BME280;42687;42.524;12.052;2022-10-22T04:30:01;97287.66;;;15.85;98.42
56807;BME280;42687;42.524;12.052;2022-10-22T04:32:27;97289.31;;;15.86;98.58
56807;BME280;42687;42.524;12.052;2022-10-22T04:34:52;97285.72;;;15.87;98.22
56807;BME280;42687;42.524;12.052;2022-10-22T04:37:18;97301.03;;;15.83;98.21
56807;BME280;42687;42.524;12.052;2022-10-22T04:39:44;97296.78;;;15.81;98.12
56807;BME280;42687;42.524;12.052;2022-10-22T04:42:09;97280.50;;;15.73;98.09
56807;BME280;42687;42.524;12.052;2022-10-22T04:44:35;97302.25;;;15.78;98.46
56807;BME280;42687;42.524;12.052;2022-10-22T04:47:00;97297.81;;;15.78;98.38
56807;BME280;42687;42.524;12.052;2022-10-22T04:49:26;97301.41;;;15.77;98.73
56807;BME280;42687;42.524;12.052;2022-10-22T04:51:51;97310.09;;;15.79;98.58
56807;BME280;42687;42.524;12.052;2022-10-22T04:54:17;97317.13;;;15.80;98.37
56807;BME280;42687;42.524;12.052;2022-10-22T04:56:42;97310.03;;;15.81;98.33
56807;BME280;42687;42.524;12.052;2022-10-22T04:59:09;97296.41;;;15.73;98.56
56807;BME280;42687;42.524;12.052;2022-10-22T05:01:40;97299.47;;;15.79;98.21
56807;BME280;42687;42.524;12.052;2022-10-22T05:04:06;97303.88;;;15.80;98.24
56807;BME280;42687;42.524;12.052;2022-10-22T05:06:33;97299.47;;;15.79;98.13
56807;BME280;42687;42.524;12.052;2022-10-22T05:09:01;97304.78;;;15.79;98.02
56807;BME280;42687;42.524;12.052;2022-10-22T05:11:32;97302.47;;;15.75;97.92
56807;BME280;42687;42.524;12.052;2022-10-22T05:13:59;97310.53;;;15.73;98.18
56807;BME280;42687;42.524;12.052;2022-10-22T05:16:26;97306.19;;;15.72;98.06
56807;BME280;42687;42.524;12.052;2022-10-22T05:18:52;97312.25;;;15.74;98.29
56807;BME280;42687;42.524;12.052;2022-10-22T05:21:18;97301.53;;;15.76;98.13
56807;BME280;42687;42.524;12.052;2022-10-22T05:23:44;97313.09;;;15.75;98.35
56807;BME280;42687;42.524;12.052;2022-10-22T05:26:11;97301.72;;;15.73;98.27
56807;BME280;42687;42.524;12.052;2022-10-22T05:28:37;97315.22;;;15.70;98.16
56807;BME280;42687;42.524;12.052;2022-10-22T05:31:03;97317.22;;;15.66;97.92
56807;BME280;42687;42.524;12.052;2022-10-22T05:33:29;97308.72;;;15.61;97.74
56807;BME280;42687;42.524;12.052;2022-10-22T05:35:55;97303.53;;;15.59;97.79
56807;BME280;42687;42.524;12.052;2022-10-22T05:38:21;97305.13;;;15.62;97.95
56807;BME280;42687;42.524;12.052;2022-10-22T05:40:47;97301.31;;;15.66;97.68
56807;BME280;42687;42.524;12.052;2022-10-22T05:43:12;97299.06;;;15.73;97.88
56807;BME280;42687;42.524;12.052;2022-10-22T05:45:39;97292.50;;;15.78;97.67
56807;BME280;42687;42.524;12.052;2022-10-22T05:48:05;97285.31;;;15.80;97.50
56807;BME280;42687;42.524;12.052;2022-10-22T05:50:34;97295.03;;;15.80;97.23
56807;BME280;42687;42.524;12.052;2022-10-22T05:52:59;97297.91;;;15.77;97.48
56807;BME280;42687;42.524;12.052;2022-10-22T05:55:25;97288.38;;;15.74;97.51
56807;BME280;42687;42.524;12.052;2022-10-22T05:57:50;97285.72;;;15.74;97.63
56807;BME280;42687;42.524;12.052;2022-10-22T06:00:16;97278.38;;;15.78;97.37
56807;BME280;42687;42.524;12.052;2022-10-22T06:02:41;97218.75;;;15.46;97.44
56807;BME280;42687;42.524;12.052;2022-10-22T06:05:07;97281.47;;;15.84;97.52
56807;BME280;42687;42.524;12.052;2022-10-22T06:07:32;97279.34;;;15.90;97.74
56807;BME280;42687;42.524;12.052;2022-10-22T06:09:58;97283.34;;;15.95;97.98
56807;BME280;42687;42.524;12.052;2022-10-22T06:12:24;97300.97;;;15.96;97.74
56807;BME280;42687;42.524;12.052;2022-10-22T06:14:49;97312.53;;;15.95;98.15
56807;BME280;42687;42.524;12.052;2022-10-22T06:17:15;97317.13;;;15.93;98.29
56807;BME280;42687;42.524;12.052;2022-10-22T06:19:40;97318.81;;;15.94;98.59
56807;BME280;42687;42.524;12.052;2022-10-22T06:22:06;97328.25;;;15.98;98.61
56807;BME280;42687;42.524;12.052;2022-10-22T06:24:31;97334.16;;;16.02;98.45
56807;BME280;42687;42.524;12.052;2022-10-22T06:26:57;97332.38;;;16.03;98.70
56807;BME280;42687;42.524;12.052;2022-10-22T06:29:22;97325.13;;;16.05;98.66
56807;BME280;42687;42.524;12.052;2022-10-22T06:31:48;97328.44;;;16.08;98.82
56807;BME280;42687;42.524;12.052;2022-10-22T06:34:13;97340.31;;;16.15;98.46
56807;BME280;42687;42.524;12.052;2022-10-22T06:36:39;97339.66;;;16.25;98.25
56807;BME280;42687;42.524;12.052;2022-10-22T06:39:09;97341.84;;;16.31;98.10
56807;BME280;42687;42.524;12.052;2022-10-22T06:41:35;97345.00;;;16.36;97.85
56807;BME280;42687;42.524;12.052;2022-10-22T06:44:00;97344.78;;;16.39;97.82
56807;BME280;42687;42.524;12.052;2022-10-22T06:46:26;97362.53;;;16.39;97.92
56807;BME280;42687;42.524;12.052;2022-10-22T06:48:53;97362.41;;;16.40;97.85
56807;BME280;42687;42.524;12.052;2022-10-22T06:51:19;97356.03;;;16.43;98.50
56807;BME280;42687;42.524;12.052;2022-10-22T06:53:45;97361.75;;;16.49;98.10
56807;BME280;42687;42.524;12.052;2022-10-22T06:56:12;97357.06;;;16.53;98.19
56807;BME280;42687;42.524;12.052;2022-10-22T06:58:38;97363.72;;;16.59;98.17
56807;BME280;42687;42.524;12.052;2022-10-22T07:01:04;97364.25;;;16.64;98.14
56807;BME280;42687;42.524;12.052;2022-10-22T07:03:30;97373.56;;;16.70;98.28
56807;BME280;42687;42.524;12.052;2022-10-22T07:05:59;97374.06;;;16.75;98.13
56807;BME280;42687;42.524;12.052;2022-10-22T07:08:25;97373.41;;;16.84;98.12
56807;BME280;42687;42.524;12.052;2022-10-22T07:10:51;97373.28;;;16.85;98.40
56807;BME280;42687;42.524;12.052;2022-10-22T07:13:16;97368.50;;;16.91;98.37
56807;BME280;42687;42.524;12.052;2022-10-22T07:15:42;97370.84;;;16.95;98.17
56807;BME280;42687;42.524;12.052;2022-10-22T07:18:07;97371.47;;;16.99;98.03
56807;BME280;42687;42.524;12.052;2022-10-22T07:20:33;97381.97;;;17.00;98.10
56807;BME280;42687;42.524;12.052;2022-10-22T07:22:58;97381.72;;;17.04;97.91
56807;BME280;42687;42.524;12.052;2022-10-22T07:25:24;97382.25;;;17.09;97.88
56807;BME280;42687;42.524;12.052;2022-10-22T07:27:49;97384.66;;;17.12;97.79
56807;BME280;42687;42.524;12.052;2022-10-22T07:30:15;97376.84;;;17.22;97.55
56807;BME280;42687;42.524;12.052;2022-10-22T07:32:40;97387.75;;;17.30;97.21
56807;BME280;42687;42.524;12.052;2022-10-22T07:35:06;97382.94;;;17.35;97.60
56807;BME280;42687;42.524;12.052;2022-10-22T07:37:31;97387.88;;;17.40;97.83
56807;BME280;42687;42.524;12.052;2022-10-22T07:39:57;97397.63;;;17.52;97.27
56807;BME280;42687;42.524;12.052;2022-10-22T07:42:22;97401.34;;;17.61;96.84
56807;BME280;42687;42.524;12.052;2022-10-22T07:44:48;97405.84;;;17.72;96.39
56807;BME280;42687;42.524;12.052;2022-10-22T07:47:13;97412.25;;;17.69;96.86
56807;BME280;42687;42.524;12.052;2022-10-22T07:49:39;97411.06;;;17.73;96.54
56807;BME280;42687;42.524;12.052;2022-10-22T07:52:05;97409.50;;;17.71;96.33
56807;BME280;42687;42.524;12.052;2022-10-22T07:54:31;97404.06;;;17.72;96.32
56807;BME280;42687;42.524;12.052;2022-10-22T07:56:56;97426.41;;;17.70;96.20
56807;BME280;42687;42.524;12.052;2022-10-22T07:59:22;97417.34;;;17.72;95.75
56807;BME280;42687;42.524;12.052;2022-10-22T08:01:47;97379.56;;;17.44;95.23
56807;BME280;42687;42.524;12.052;2022-10-22T08:04:13;97419.75;;;17.64;95.41
56807;BME280;42687;42.524;12.052;2022-10-22T08:06:38;97421.69;;;17.62;95.58
56807;BME280;42687;42.524;12.052;2022-10-22T08:09:04;97407.00;;;17.45;95.34
56807;BME280;42687;42.524;12.052;2022-10-22T08:11:30;97418.50;;;17.57;94.88
56807;BME280;42687;42.524;12.052;2022-10-22T08:13:57;97419.84;;;17.51;95.30
56807;BME280;42687;42.524;12.052;2022-10-22T08:16:23;97415.09;;;17.43;95.62
56807;BME280;42687;42.524;12.052;2022-10-22T08:18:49;97407.88;;;17.45;95.31
56807;BME280;42687;42.524;12.052;2022-10-22T08:21:14;97409.91;;;17.53;95.05
56807;BME280;42687;42.524;12.052;2022-10-22T08:23:41;97414.66;;;17.49;95.11
56807;BME280;42687;42.524;12.052;2022-10-22T08:26:06;97415.84;;;17.57;95.11
56807;BME280;42687;42.524;12.052;2022-10-22T08:28:35;97413.94;;;17.59;95.25
56807;BME280;42687;42.524;12.052;2022-10-22T08:31:04;97409.47;;;17.59;95.08
56807;BME280;42687;42.524;12.052;2022-10-22T08:33:30;97409.97;;;17.64;94.70
56807;BME280;42687;42.524;12.052;2022-10-22T08:35:55;97414.44;;;17.75;94.90
56807;BME280;42687;42.524;12.052;2022-10-22T08:38:20;97421.03;;;17.94;94.40
56807;BME280;42687;42.524;12.052;2022-10-22T08:40:48;97422.16;;;18.03;94.07
56807;BME280;42687;42.524;12.052;2022-10-22T08:45:50;97417.06;;;18.45;93.26
56807;BME280;42687;42.524;12.052;2022-10-22T08:48:23;97426.59;;;18.59;93.05
56807;BME280;42687;42.524;12.052;2022-10-22T08:50:55;97425.59;;;18.71;92.51
56807;BME280;42687;42.524;12.052;2022-10-22T08:53:24;97422.94;;;18.82;92.00
56807;BME280;42687;42.524;12.052;2022-10-22T08:55:52;97438.06;;;18.93;92.01
56807;BME280;42687;42.524;12.052;2022-10-22T08:59:01;97446.88;;;19.05;91.55
56807;BME280;42687;42.524;12.052;2022-10-22T09:01:11;97390.72;;;18.74;91.44
56807;BME280;42687;42.524;12.052;2022-10-22T09:03:51;97449.19;;;19.31;91.20
56807;BME280;42687;42.524;12.052;2022-10-22T09:06:23;97457.94;;;19.33;91.27
56807;BME280;42687;42.524;12.052;2022-10-22T09:08:49;97466.19;;;19.30;91.14
56807;BME280;42687;42.524;12.052;2022-10-22T09:11:21;97458.81;;;19.22;91.43
56807;BME280;42687;42.524;12.052;2022-10-22T09:13:48;97462.09;;;19.26;91.37
56807;BME280;42687;42.524;12.052;2022-10-22T09:16:15;97456.63;;;19.27;91.09
56807;BME280;42687;42.524;12.052;2022-10-22T09:24:08;97454.78;;;19.39;90.07
56807;BME280;42687;42.524;12.052;2022-10-22T09:26:36;97449.94;;;19.33;89.34
56807;BME280;42687;42.524;12.052;2022-10-22T09:29:03;97445.50;;;19.22;89.02
56807;BME280;42687;42.524;12.052;2022-10-22T09:31:30;97452.41;;;19.25;88.52
56807;BME280;42687;42.524;12.052;2022-10-22T09:33:56;97459.28;;;19.27;88.42
56807;BME280;42687;42.524;12.052;2022-10-22T09:36:23;97450.13;;;19.41;88.16
56807;BME280;42687;42.524;12.052;2022-10-22T09:38:50;97457.13;;;19.54;87.65
56807;BME280;42687;42.524;12.052;2022-10-22T09:41:16;97394.47;;;19.48;86.76
56807;BME280;42687;42.524;12.052;2022-10-22T09:43:45;97453.31;;;20.10;86.36
56807;BME280;42687;42.524;12.052;2022-10-22T09:46:15;97453.34;;;20.20;85.61
56807;BME280;42687;42.524;12.052;2022-10-22T09:48:41;97454.34;;;20.19;85.48
56807;BME280;42687;42.524;12.052;2022-10-22T09:53:38;97454.22;;;20.20;84.63
56807;BME280;42687;42.524;12.052;2022-10-22T09:56:07;97455.22;;;20.60;83.65
56807;BME280;42687;42.524;12.052;2022-10-22T09:58:42;97466.31;;;20.96;83.38
56807;BME280;42687;42.524;12.052;2022-10-22T10:01:14;97455.66;;;21.35;82.84
56807;BME280;42687;42.524;12.052;2022-10-22T10:03:40;97457.22;;;21.38;81.46
56807;BME280;42687;42.524;12.052;2022-10-22T10:06:06;97461.72;;;21.17;80.98
56807;BME280;42687;42.524;12.052;2022-10-22T10:08:31;97462.09;;;21.03;80.84
56807;BME280;42687;42.524;12.052;2022-10-22T10:11:10;97464.91;;;20.92;81.25
56807;BME280;42687;42.524;12.052;2022-10-22T10:21:38;97455.59;;;20.86;79.65
56807;BME280;42687;42.524;12.052;2022-10-22T10:26:36;97446.72;;;20.76;80.11
56807;BME280;42687;42.524;12.052;2022-10-22T10:29:15;97445.03;;;20.85;79.93
56807;BME280;42687;42.524;12.052;2022-10-22T10:40:20;97427.81;;;21.57;77.37
56807;BME280;42687;42.524;12.052;2022-10-22T10:50:46;97418.34;;;21.14;77.02
56807;BME280;42687;42.524;12.052;2022-10-22T10:55:29;97426.06;;;20.97;76.41
56807;BME280;42687;42.524;12.052;2022-10-22T10:58:02;97423.50;;;20.86;76.46
56807;BME280;42687;42.524;12.052;2022-10-22T11:00:31;97422.13;;;21.02;76.46
56807;BME280;42687;42.524;12.052;2022-10-22T11:13:44;97426.53;;;22.66;73.12
56807;BME280;42687;42.524;12.052;2022-10-22T11:16:20;97415.47;;;22.51;73.36
56807;BME280;42687;42.524;12.052;2022-10-22T11:18:50;97418.28;;;22.77;72.18
56807;BME280;42687;42.524;12.052;2022-10-22T11:21:20;97419.00;;;22.97;71.08
56807;BME280;42687;42.524;12.052;2022-10-22T11:23:49;97410.34;;;22.86;71.22
56807;BME280;42687;42.524;12.052;2022-10-22T11:26:24;97406.06;;;22.65;71.82
56807;BME280;42687;42.524;12.052;2022-10-22T11:28:52;97407.84;;;22.74;71.78
56807;BME280;42687;42.524;12.052;2022-10-22T11:31:18;97404.03;;;22.77;71.45
56807;BME280;42687;42.524;12.052;2022-10-22T11:33:47;97396.78;;;22.59;71.32
56807;BME280;42687;42.524;12.052;2022-10-22T11:36:15;97391.38;;;22.41;71.37
56807;BME280;42687;42.524;12.052;2022-10-22T11:38:42;97392.81;;;22.36;71.23
56807;BME280;42687;42.524;12.052;2022-10-22T11:41:12;97403.00;;;22.22;71.65
56807;BME280;42687;42.524;12.052;2022-10-22T11:43:51;97405.00;;;22.10;72.09
56807;BME280;42687;42.524;12.052;2022-10-22T11:48:43;97404.34;;;21.98;71.86
56807;BME280;42687;42.524;12.052;2022-10-22T11:51:53;97399.44;;;21.94;72.20
56807;BME280;42687;42.524;12.052;2022-10-22T11:53:55;97404.03;;;22.11;71.75
56807;BME280;42687;42.524;12.052;2022-10-22T11:56:22;97401.34;;;22.11;71.66
56807;BME280;42687;42.524;12.052;2022-10-22T11:58:49;97400.22;;;22.04;71.39
56807;BME280;42687;42.524;12.052;2022-10-22T12:01:22;97390.28;;;21.96;71.44
56807;BME280;42687;42.524;12.052;2022-10-22T12:03:49;97397.78;;;21.83;71.43
56807;BME280;42687;42.524;12.052;2022-10-22T12:06:17;97392.00;;;21.68;72.15
56807;BME280;42687;42.524;12.052;2022-10-22T12:11:15;97378.81;;;21.57;72.13
56807;BME280;42687;42.524;12.052;2022-10-22T12:16:13;97379.63;;;21.47;72.58
56807;BME280;42687;42.524;12.052;2022-10-22T12:18:39;97371.16;;;21.52;72.31
56807;BME280;42687;42.524;12.052;2022-10-22T12:21:09;97368.06;;;21.47;72.19
56807;BME280;42687;42.524;12.052;2022-10-22T12:23:36;97366.69;;;21.43;72.33
56807;BME280;42687;42.524;12.052;2022-10-22T12:26:02;97360.75;;;21.39;72.54
56807;BME280;42687;42.524;12.052;2022-10-22T12:28:28;97373.75;;;21.34;72.80
56807;BME280;42687;42.524;12.052;2022-10-22T12:30:53;97359.63;;;21.42;72.46
56807;BME280;42687;42.524;12.052;2022-10-22T12:33:23;97371.47;;;21.59;72.44
56807;BME280;42687;42.524;12.052;2022-10-22T12:35:50;97374.00;;;21.60;72.44
56807;BME280;42687;42.524;12.052;2022-10-22T12:38:22;97354.13;;;21.63;72.19
56807;BME280;42687;42.524;12.052;2022-10-22T12:40:49;97352.03;;;21.66;72.49
56807;BME280;42687;42.524;12.052;2022-10-22T12:43:18;97353.41;;;21.71;72.20
56807;BME280;42687;42.524;12.052;2022-10-22T12:45:45;97351.75;;;21.60;72.21
56807;BME280;42687;42.524;12.052;2022-10-22T12:48:13;97350.06;;;21.49;72.17
56807;BME280;42687;42.524;12.052;2022-10-22T12:50:40;97343.59;;;21.32;72.44
56807;BME280;42687;42.524;12.052;2022-10-22T12:55:38;97337.97;;;21.25;72.08
56807;BME280;42687;42.524;12.052;2022-10-22T12:58:04;97350.22;;;21.28;72.07
56807;BME280;42687;42.524;12.052;2022-10-22T13:00:32;97342.63;;;21.23;72.48
56807;BME280;42687;42.524;12.052;2022-10-22T13:02:59;97345.16;;;21.25;72.24
56807;BME280;42687;42.524;12.052;2022-10-22T13:05:30;97354.88;;;21.16;72.44
56807;BME280;42687;42.524;12.052;2022-10-22T13:08:04;97346.41;;;21.21;72.27
56807;BME280;42687;42.524;12.052;2022-10-22T13:10:34;97346.41;;;21.21;72.19
56807;BME280;42687;42.524;12.052;2022-10-22T13:13:00;97355.84;;;21.15;72.60
56807;BME280;42687;42.524;12.052;2022-10-22T13:18:16;97354.19;;;20.94;72.96
56807;BME280;42687;42.524;12.052;2022-10-22T13:20:54;97349.81;;;20.83;73.28
56807;BME280;42687;42.524;12.052;2022-10-22T13:23:21;97278.84;;;20.40;73.15
56807;BME280;42687;42.524;12.052;2022-10-22T13:28:23;97303.75;;;20.50;73.58
56807;BME280;42687;42.524;12.052;2022-10-22T13:30:57;97350.09;;;20.80;73.62
56807;BME280;42687;42.524;12.052;2022-10-22T13:33:43;97342.78;;;20.82;73.19
56807;BME280;42687;42.524;12.052;2022-10-22T13:36:13;97341.09;;;20.72;73.43
56807;BME280;42687;42.524;12.052;2022-10-22T13:38:40;97326.53;;;20.55;73.81
56807;BME280;42687;42.524;12.052;2022-10-22T13:41:18;97338.94;;;20.56;73.73
56807;BME280;42687;42.524;12.052;2022-10-22T13:43:44;97343.94;;;20.49;73.97
56807;BME280;42687;42.524;12.052;2022-10-22T13:46:10;97342.09;;;20.40;74.28
56807;BME280;42687;42.524;12.052;2022-10-22T13:48:35;97335.34;;;20.36;74.26
56807;BME280;42687;42.524;12.052;2022-10-22T13:51:01;97338.16;;;20.34;74.47
56807;BME280;42687;42.524;12.052;2022-10-22T13:53:28;97353.63;;;20.40;74.56
56807;BME280;42687;42.524;12.052;2022-10-22T13:55:54;97360.09;;;20.47;74.71
56807;BME280;42687;42.524;12.052;2022-10-22T13:58:21;97339.63;;;20.58;74.79
56807;BME280;42687;42.524;12.052;2022-10-22T14:00:58;97339.38;;;20.80;74.35
56807;BME280;42687;42.524;12.052;2022-10-22T14:03:27;97345.16;;;20.95;74.27
56807;BME280;42687;42.524;12.052;2022-10-22T14:05:54;97351.78;;;21.01;74.35
56807;BME280;42687;42.524;12.052;2022-10-22T14:08:21;97349.25;;;20.99;74.55
56807;BME280;42687;42.524;12.052;2022-10-22T14:10:47;97343.06;;;20.99;74.74
56807;BME280;42687;42.524;12.052;2022-10-22T14:13:13;97348.53;;;20.97;75.12
56807;BME280;42687;42.524;12.052;2022-10-22T14:15:39;97347.56;;;20.98;74.80
56807;BME280;42687;42.524;12.052;2022-10-22T14:18:05;97346.84;;;20.87;74.96
56807;BME280;42687;42.524;12.052;2022-10-22T14:20:32;97345.41;;;20.73;75.07
56807;BME280;42687;42.524;12.052;2022-10-22T14:23:01;97350.59;;;20.64;75.04